»·PEaware :: N5GL KRAL-KCMA

N5GL :: KRAL-KCMA

FLIGHT INFORMATION

Flight Status: Arrived
Operator: Privately registered:
United States
More flights under this callsign
Pilot: Georg L. (13308)
Aircraft: SOCATA TBM-900
(TBM9)
More flights by this aircraft type
Origin: KRAL Riverside Mun
United States
Destination: KCMA Camarillo
United States
More flights between these airports :: More routes between these airports
Route: RAL1 PDZ V197 POM V264 ITSME V186 FIM
File this flight plan on PilotEdge
Remarks: TEC ROUTE ONTP15
Altitude:
(Current/Filed)
8,000ft
Speed:
(Current/Filed)
270kts
Departed: 23-Dec-20 09:55 AM
Arrived: 23-Dec-20 10:25 AM
Distance/Time
Traveled:
83nm/0:29
Distance/Time
To Go:
Arrived

Flight Plot

Page will automatically refresh every two minutes.

Flight plan parsing failed; only flown route is shown


Map Options




Map Legend


Flown Route
Filed Route
Departure Airport
Arrival Airport
Navaid (VOR, NDB)
Fix

Horizontal Profiles

Position Reports

Time Latitude Longitude Heading Altitude Ground
Speed
23-Dec-20 09:37 33.950195 -117.442818 25 818ft 0kts
23-Dec-20 09:38 33.950195 -117.442818 25 818ft 0kts
23-Dec-20 09:39 33.950195 -117.442818 25 818ft 0kts
23-Dec-20 09:40 33.950195 -117.442818 25 818ft 0kts
23-Dec-20 09:41 33.950195 -117.442818 25 818ft 0kts
23-Dec-20 09:42 33.950195 -117.442818 25 818ft 0kts
23-Dec-20 09:43 33.950195 -117.442818 25 818ft 0kts
23-Dec-20 09:44 33.950195 -117.442817 25 818ft 0kts
23-Dec-20 09:45 33.950195 -117.442817 25 818ft 0kts
23-Dec-20 09:46 33.950195 -117.442817 25 818ft 0kts
23-Dec-20 09:47 33.950195 -117.442817 25 818ft 0kts
23-Dec-20 09:48 33.950195 -117.442817 25 818ft 0kts
23-Dec-20 09:49 33.950260 -117.442778 26 818ft 3kts
23-Dec-20 09:50 33.950631 -117.440448 64 818ft 7kts
23-Dec-20 09:50 33.950136 -117.436610 102 818ft 19kts
23-Dec-20 09:52 33.949954 -117.435009 39 818ft 0kts
23-Dec-20 09:53 33.949954 -117.435009 39 818ft 0kts
23-Dec-20 09:53 33.950724 -117.435540 282 818ft 21kts
23-Dec-20 09:54 33.959437 -117.471983 291 1930ft 150kts
23-Dec-20 09:55 33.966836 -117.523658 278 3982ft 168kts
23-Dec-20 09:56 33.943720 -117.573306 167 4013ft 227kts
23-Dec-20 09:58 33.917424 -117.496745 87 4004ft 229kts
23-Dec-20 09:58 33.917778 -117.431964 87 3999ft 231kts
23-Dec-20 09:59 33.947415 -117.381928 336 4400ft 218kts
23-Dec-20 10:00 33.955403 -117.444515 276 6398ft 200kts
23-Dec-20 10:01 33.975027 -117.506820 295 7989ft 204kts
23-Dec-20 10:02 33.999024 -117.571721 294 8036ft 247kts
23-Dec-20 10:03 34.027762 -117.649551 294 8027ft 257kts
23-Dec-20 10:04 34.056962 -117.728802 294 8026ft 259kts
23-Dec-20 10:05 34.078404 -117.811029 267 8033ft 261kts
23-Dec-20 10:06 34.076707 -117.898924 268 8022ft 262kts
23-Dec-20 10:07 34.075304 -117.987435 268 8012ft 263kts
23-Dec-20 10:08 34.095207 -118.070804 291 8007ft 261kts
23-Dec-20 10:09 34.116587 -118.140340 291 8013ft 261kts
23-Dec-20 10:10 34.141937 -118.223316 292 8029ft 265kts
23-Dec-20 10:11 34.167499 -118.307202 292 8039ft 266kts
23-Dec-20 10:12 34.193064 -118.391339 292 8051ft 266kts
23-Dec-20 10:13 34.205612 -118.479899 272 7577ft 276kts
23-Dec-20 10:14 34.207372 -118.571039 272 6580ft 266kts
23-Dec-20 10:15 34.209329 -118.661294 271 6066ft 264kts
23-Dec-20 10:16 34.211720 -118.749070 276 6062ft 258kts
23-Dec-20 10:17 34.218740 -118.837992 275 5300ft 273kts
23-Dec-20 10:18 34.225094 -118.930816 273 4159ft 278kts
23-Dec-20 10:19 34.227971 -119.021624 273 2648ft 265kts
23-Dec-20 10:20 34.230660 -119.106691 273 1492ft 214kts
23-Dec-20 10:21 34.218876 -119.152712 165 1032ft 112kts
23-Dec-20 10:22 34.214197 -119.125298 89 454ft 78kts
23-Dec-20 10:23 34.213943 -119.101202 88 108ft 73kts
23-Dec-20 10:24 34.212813 -119.090657 195 77ft 8kts
23-Dec-20 10:25 34.212344 -119.090559 136 77ft 0kts
23-Dec-20 10:26 34.211022 -119.088594 90 77ft 12kts
23-Dec-20 10:27 34.210985 -119.082512 88 77ft 17kts
23-Dec-20 10:28 34.210939 -119.078373 90 77ft 11kts
23-Dec-20 10:29 34.209533 -119.076789 241 77ft 3kts
23-Dec-20 10:30 34.209526 -119.076857 271 77ft 0kts
23-Dec-20 10:31 34.209835 -119.076727 271 77ft 0kts
23-Dec-20 10:32 34.209835 -119.076727 271 77ft 0kts
23-Dec-20 10:33 34.209835 -119.076727 271 77ft 0kts
23-Dec-20 10:34 34.209834 -119.076727 273 77ft 0kts

Navigation Log

Ident Type
Flight plan parsing failed, navigation log unavailable